createdAt,value
2022-12-06T00:06:59.467Z,3.70
2022-12-06T00:17:02.594Z,3.67
2022-12-06T00:27:06.867Z,3.50
2022-12-06T00:37:10.213Z,3.67
2022-12-06T00:47:14.812Z,3.77
2022-12-06T00:57:17.877Z,3.88
2022-12-06T01:07:22.220Z,3.77
2022-12-06T01:17:25.064Z,3.74
2022-12-06T01:27:29.145Z,3.78
2022-12-06T01:37:31.862Z,3.84
2022-12-06T01:47:40.206Z,3.81
2022-12-06T01:57:44.599Z,3.55
2022-12-06T02:07:49.195Z,3.81
2022-12-06T02:17:59.403Z,3.83
2022-12-06T02:28:36.345Z,3.54
2022-12-06T02:38:46.477Z,3.67
2022-12-06T02:48:53.312Z,3.66
2022-12-06T02:58:57.903Z,3.84
2022-12-06T03:09:13.248Z,3.92
2022-12-06T03:19:21.010Z,4.05
2022-12-06T03:29:26.307Z,4.07
2022-12-06T03:39:37.985Z,4.09
2022-12-06T03:49:45.381Z,4.01
2022-12-06T03:59:49.849Z,4.06
2022-12-06T04:10:03.258Z,4.00
2022-12-06T04:20:09.261Z,3.84
2022-12-06T04:30:29.951Z,3.77
2022-12-06T04:40:35.032Z,3.87
2022-12-06T04:50:38.232Z,3.91
2022-12-06T05:00:43.753Z,3.89
2022-12-06T05:10:48.990Z,3.93
2022-12-06T05:21:01.623Z,4.08
2022-12-06T05:31:05.432Z,4.04
2022-12-06T05:41:10.141Z,4.05
2022-12-06T05:51:13.500Z,4.18
2022-12-06T06:01:18.166Z,4.04
2022-12-06T06:23:11.837Z,4.13
2022-12-06T06:33:15.822Z,4.28
2022-12-06T06:43:20.810Z,4.41
2022-12-06T06:53:24.952Z,4.31
2022-12-06T07:03:30.087Z,4.47
2022-12-06T07:13:33.264Z,4.38
2022-12-06T07:23:38.707Z,4.39
2022-12-06T07:33:42.885Z,4.51
2022-12-06T07:44:04.951Z,4.45
2022-12-06T07:54:08.243Z,4.55
2022-12-06T08:04:13.440Z,4.41
2022-12-06T08:14:17.050Z,4.63
2022-12-06T08:24:21.900Z,4.46
2022-12-06T08:34:24.839Z,4.56
2022-12-06T08:44:30.353Z,4.98
2022-12-06T08:54:35.259Z,4.90
2022-12-06T09:04:39.946Z,4.76
2022-12-06T09:14:43.017Z,4.87
2022-12-06T09:24:47.513Z,4.91
2022-12-06T09:34:51.264Z,4.92
2022-12-06T09:45:16.099Z,4.97
2022-12-06T09:55:32.271Z,5.20
2022-12-06T10:05:52.083Z,5.15
2022-12-06T10:16:05.542Z,5.26
2022-12-06T10:26:15.707Z,5.22
2022-12-06T10:36:24.674Z,5.25
2022-12-06T10:47:05.045Z,5.67
2022-12-06T10:57:16.866Z,5.27
2022-12-06T11:07:25.523Z,5.43
2022-12-06T11:17:33.654Z,5.56
2022-12-06T11:27:45.804Z,5.55
2022-12-06T11:37:51.280Z,5.56
2022-12-06T11:47:56.748Z,5.50
2022-12-06T11:58:04.845Z,5.60
2022-12-06T12:08:18.406Z,5.71
2022-12-06T12:18:28.086Z,5.73
2022-12-06T12:28:34.193Z,5.77
2022-12-06T12:38:42.436Z,5.59
2022-12-06T12:48:49.037Z,5.99
2022-12-06T12:58:55.169Z,5.91
2022-12-06T13:09:04.784Z,5.77
2022-12-06T13:19:15.348Z,5.82
2022-12-06T13:29:28.878Z,5.76
2022-12-06T13:39:41.694Z,5.75
2022-12-06T13:49:48.960Z,5.73
2022-12-06T13:59:52.800Z,5.72
2022-12-06T14:09:57.438Z,5.76
2022-12-06T14:20:01.684Z,5.73
2022-12-06T14:30:19.751Z,5.87
2022-12-06T14:40:50.156Z,5.83
2022-12-06T14:51:03.010Z,5.87
2022-12-06T15:01:16.459Z,5.88
2022-12-06T15:11:45.124Z,5.95
2022-12-06T15:21:51.609Z,5.95
2022-12-06T15:31:56.517Z,5.87
2022-12-06T15:41:59.838Z,5.75
2022-12-06T15:52:04.250Z,5.57
2022-12-06T16:02:15.746Z,5.64
2022-12-06T16:12:20.368Z,5.67
2022-12-06T16:22:43.746Z,5.72
2022-12-06T16:32:48.103Z,5.51
2022-12-06T16:42:51.341Z,5.53
2022-12-06T16:52:55.969Z,5.53
2022-12-06T17:02:59.263Z,5.55
2022-12-06T17:13:04.550Z,5.58
2022-12-06T17:23:07.599Z,5.48
2022-12-06T17:33:12.213Z,5.51
2022-12-06T17:43:15.478Z,5.58
2022-12-06T17:53:20.029Z,5.53
2022-12-06T18:03:23.273Z,5.49
2022-12-06T18:25:38.177Z,5.35
2022-12-06T18:35:41.126Z,5.24
2022-12-06T18:45:45.810Z,5.31
2022-12-06T18:55:49.268Z,5.26
2022-12-06T19:06:02.885Z,5.28
2022-12-06T19:16:07.398Z,5.22
2022-12-06T19:26:12.042Z,5.38
2022-12-06T19:36:19.374Z,5.40
2022-12-06T19:46:26.746Z,5.34
2022-12-06T19:56:31.304Z,5.30
2022-12-06T20:06:36.935Z,5.34
2022-12-06T20:16:42.855Z,5.48
2022-12-06T20:26:49.988Z,5.43
2022-12-06T20:36:53.223Z,5.40
2022-12-06T20:46:57.902Z,5.51
2022-12-06T20:57:06.249Z,5.46
2022-12-06T21:07:10.583Z,5.59
2022-12-06T21:17:13.898Z,5.44
2022-12-06T21:27:18.311Z,5.57
2022-12-06T21:37:22.090Z,5.50
2022-12-06T21:47:26.872Z,5.58
2022-12-06T21:57:31.441Z,5.53
2022-12-06T22:07:36.682Z,5.52
2022-12-06T22:17:40.116Z,5.46
2022-12-06T22:27:44.758Z,5.49
2022-12-06T22:37:47.899Z,5.36
2022-12-06T22:47:54.585Z,5.56
2022-12-06T22:57:57.422Z,5.28
2022-12-06T23:08:01.775Z,5.26
2022-12-06T23:18:05.087Z,5.33
2022-12-06T23:28:09.599Z,5.33
2022-12-06T23:38:12.325Z,5.28
2022-12-06T23:48:16.590Z,5.33
2022-12-06T23:58:19.329Z,5.45
